Wednesday, August 24, 2016
12:05 UTC
  |  Log In   |  Register Free
Airport Search:

Olympia Regional Airport
(KOLM)

Airport information sponsored by:
Glacier Jet Center at Olympia Regional (KOLM), Olympia, WA
FAA data valid effective May 26 2016 - Jul 21 2016 (unless otherwise noted).

 
 
 
 
 
 
 
 
 
 
 
 
 
 
Current Aviation Weather for KOLM

Weather Summary


The most recent METAR observation for OLM was updated at: 12:54 UTC
METAR for OLM is not available. Closest METAR is for
METAR

METAR KOLM 241154Z 00000KT 10SM CLR 09/08 A3020 RMK AO2 SLP224 7//// T00890078 10167 20089 53004

METAR KOLM 241054Z 00000KT 10SM CLR 10/08 A3019 RMK AO2 SLP223 T01000083

METAR KOLM 240954Z 00000KT 10SM CLR 11/08 A3019 RMK AO2 SLP221 T01060083

METAR KCLS 241155Z 00000KT 10SM CLR 11/11 A3019 RMK AO2

METAR KGRF 241158Z 14001KT 10SM CLR 11/09 A3019 RMK AO2 SLP226 T01060089 10184 20106 51004 $

METAR KPLU 241155Z 00000KT 11/11 A3020 RMK AO2

TAF for OLM is not available.
TAF

KOLM - TAF KOLM 241120Z 2412/2512 00000KT P6SM SKC

KOLM - TEMPO 2412/2416 3/4SM BR BKN002

KOLM - FM241800 02008KT P6SM SKC =

KGRF - TAF KGRF 240500Z 2405/2511 16006KT 9999 SKC QNH3016INS

KGRF - BECMG 2415/2416 35010KT 9999 SKC QNH3022INS

KGRF - BECMG 2418/2419 35010G15KT 9999 SKC QNH3014INS

KGRF - BECMG 2504/2505 VRB06KT 9999 SKC QNH3015INS TX30/2423Z TN10/2413Z =

KTCM - TAF KTCM 240500Z 2405/2511 16006KT 9999 SKC QNH3016INS

KTCM - BECMG 2415/2416 35010KT 9999 SKC QNH3022INS

KTCM - BECMG 2418/2419 35010G15KT 9999 SKC QNH3014INS

KTCM - BECMG 2504/2505 VRB06KT 9999 SKC QNH3015INS TX30/2423Z TN10/2413Z =

GlobalAir.com is loading additional information.
 Current Weather at OLM
50.0 F° (10.0 C°)

North winds at 0.0 mph
Pressure:
30.19 in
Humidity:
89%
Wind:
North at 0.0 mph
Dew Point:
46.9 F° (8.3 C°)
Visibility:
10.00 mi
OLM NOAA Radar




Find All Airport Services Find A Hotel Find A Rental Car Find A Golf Course Find A Restaurant $100 Hamburger



Airport Weather Forecast for KOLM

Translated METAR for KOLM (1154 UTC)
METAR:
KOLM 241154Z AUTO Olympia Regional, Olympia, WA (KOLM). Aug 24, 1154Z, Automated. Wind is Calm, 10 statute miles visibility, Clear Skies, Temperature 9°C, Dewpoint 8°C, Altimeter is 30.20. Remarks: automated station with precipitation discriminator sea level pressure 1022.4 hectopascals undetermined amount of precipitation in past 24 hours hourly temp 8.9°C dewpoint 7.8°C 6-hour max temp 16.7°C 6-hour min temp 8.9°C 3-hour atmospheric pressure decreasing or steady, then increasing; or increasing then increasing more rapidly by 0.4 hectopascals
Conditions at:
KOLM (Olympia Rgnl, WA) observed 1154 UTC 24 August 2016
Temperature:
50.0 F° (10.0 C°)
Dewpoint:
not reported - refer to area weather report
Pressure:
30.19 Hg
Winds:
not reported
Visibility:
10.00
Ceiling:
at least 12,000 feet AGL
Clouds:
not reported - refer to area weather report
Remarks:
site is un-manned

Translated TAF for TAF for OLM is not available. Refer to local area forecast.
FBO's on the Field
FBO Company Facility Photos Services Transportation Aviation Fuel Prices: Prices include tax
Catering Weather Repair Courtesy Rental Type 100LL JetA JetA+ MOGAS 8087
 
Glacier Jet Center

Glacier Jet Center logo
Currently rated 5 by 1 person
FS:
Last Updated: Aug-08
Login to update fuel prices
SS:
Contact Glacier Jet CenterMore FBO Information
 
Jorgensen Air Service

Jorgensen Air Service logo
Currently rated 5 by 3 people
FS:
Last Updated: Aug-08
Login to update fuel prices
SS:
Contact Jorgensen Air ServiceMore FBO Information
 
Add another FBO Facility Photos Catering Weather Repair Courtesy Rental Type 100LL JetA JetA+ MOGAS 8087
Services Transportation Aviation Fuel Prices: Prices include tax


model-print
model-print
model-print
model-print